Time;durP1;ratioP1;P1;durP2;ratioP2;P2;SDS_P1;SDS_P2;PMS_P1;PMS_P2;Temp;Humidity;BMP_temperature;BMP_pressure;BME280_temperature;BME280_humidity;BME280_pressure;Samples;Min_cycle;Max_cycle;Signal;HPM_P1;HPM_P2
2022/04/02 17:38:40;;;;;;;9.95;1.90;;;5.70;94.70;;;;;;5070516;28;20371;-45
2022/04/02 17:41:07;;;;;;;8.73;1.50;;;5.50;93.70;;;;;;5069030;28;20529;-43
2022/04/02 17:43:36;;;;;;;7.53;2.35;;;5.50;95.80;;;;;;5069872;28;20091;-47
2022/04/02 17:46:05;;;;;;;5.25;1.40;;;5.40;93.90;;;;;;5068760;28;20040;-50
2022/04/02 17:48:32;;;;;;;3.97;1.50;;;5.30;93.90;;;;;;5069588;28;20079;-48
2022/04/02 17:51:00;;;;;;;11.85;2.53;;;5.20;93.80;;;;;;5068533;28;20052;-45
2022/04/02 17:53:27;;;;;;;8.57;2.88;;;5.20;94.80;;;;;;5055398;28;20041;-50
2022/04/02 17:55:54;;;;;;;6.03;2.22;;;5.20;94.50;;;;;;5050313;28;20406;-53
2022/04/02 17:58:21;;;;;;;9.43;3.00;;;5.20;94.70;;;;;;5066476;28;20041;-46
2022/04/02 18:00:48;;;;;;;9.20;2.72;;;5.30;95.00;;;;;;5069395;28;20041;-48
2022/04/02 18:03:14;;;;;;;7.40;2.58;;;5.30;95.00;;;;;;5069312;28;20044;-48
2022/04/02 18:05:43;;;;;;;6.35;2.40;;;5.30;94.40;;;;;;5069207;28;20041;-46
2022/04/02 18:08:10;;;;;;;5.90;2.10;;;5.30;94.10;;;;;;5069252;28;20036;-50
2022/04/02 18:10:37;;;;;;;9.13;2.17;;;5.30;94.10;;;;;;5069246;28;20380;-48
2022/04/02 18:13:03;;;;;;;8.35;2.28;;;5.20;93.70;;;;;;5068551;28;20048;-46
2022/04/02 18:15:30;;;;;;;7.32;3.28;;;5.30;94.80;;;;;;5069334;28;20048;-53
2022/04/02 18:17:57;;;;;;;7.70;2.20;;;5.30;96.10;;;;;;5069187;28;20072;-49
2022/04/02 18:20:24;;;;;;;15.60;7.68;;;5.30;96.00;;;;;;5067815;28;20041;-44
2022/04/02 18:22:51;;;;;;;16.00;10.70;;;5.30;96.20;;;;;;5067823;28;20049;-49
2022/04/02 18:25:18;;;;;;;10.45;6.35;;;5.40;96.30;;;;;;5069148;28;20052;-51
2022/04/02 18:27:44;;;;;;;10.70;4.00;;;5.40;96.20;;;;;;5049478;28;20049;-53
2022/04/02 18:30:11;;;;;;;7.00;3.20;;;5.40;97.00;;;;;;5054938;28;20488;-49
2022/04/02 18:32:38;;;;;;;6.68;3.40;;;5.40;97.10;;;;;;5069011;28;20041;-50
2022/04/02 18:35:05;;;;;;;8.27;3.47;;;5.40;96.40;;;;;;5062222;28;20045;-49
2022/04/02 18:37:32;;;;;;;11.77;3.70;;;5.40;96.70;;;;;;5062574;28;20103;-49
2022/04/02 18:39:59;;;;;;;9.95;3.63;;;5.40;96.90;;;;;;5054803;28;20033;-47
2022/04/02 18:42:25;;;;;;;8.95;2.35;;;5.40;97.00;;;;;;5067336;28;20454;-54
2022/04/02 18:44:53;;;;;;;5.70;2.50;;;5.30;95.40;;;;;;5067596;28;20064;-50
2022/04/02 18:47:19;;;;;;;7.32;2.42;;;5.30;96.20;;;;;;5068398;28;20068;-45
2022/04/02 18:49:46;;;;;;;5.75;2.28;;;5.30;96.40;;;;;;5056566;28;20106;-53
2022/04/02 18:52:14;;;;;;;7.00;2.05;;;5.30;96.10;;;;;;5055146;28;20500;-50
2022/04/02 18:54:41;;;;;;;7.45;2.40;;;5.20;96.10;;;;;;5036943;28;20049;-47
2022/04/02 18:57:08;;;;;;;8.95;2.65;;;5.20;95.50;;;;;;5035734;28;20038;-51
2022/04/02 18:59:34;;;;;;;6.70;2.88;;;5.10;96.40;;;;;;5047128;28;20459;-42
2022/04/02 19:02:01;;;;;;;11.07;4.15;;;5.00;95.70;;;;;;5054811;28;20069;-44
2022/04/02 19:04:29;;;;;;;6.55;3.35;;;4.90;96.00;;;;;;5053713;28;20043;-44
2022/04/02 19:06:59;;;;;;;12.45;6.13;;;4.90;96.70;;;;;;5054917;28;20047;-53
2022/04/02 19:09:26;;;;;;;10.80;5.28;;;4.80;96.50;;;;;;5053514;28;20040;-48
2022/04/02 19:11:53;;;;;;;17.63;8.38;;;4.70;96.80;;;;;;5054949;28;20037;-48
2022/04/02 19:14:19;;;;;;;14.75;7.97;;;4.70;97.30;;;;;;5050222;28;20041;-45
2022/04/02 19:16:46;;;;;;;11.48;7.25;;;4.70;97.20;;;;;;5051624;28;20037;-50
2022/04/02 19:19:13;;;;;;;10.85;4.63;;;4.70;98.20;;;;;;5054622;28;20045;-44
2022/04/02 19:21:40;;;;;;;10.23;5.18;;;4.60;98.00;;;;;;5037191;28;20053;-44
2022/04/02 19:24:07;;;;;;;10.23;5.85;;;4.60;98.50;;;;;;5035531;28;20045;-47
2022/04/02 19:26:35;;;;;;;12.90;6.05;;;4.60;98.30;;;;;;5035550;28;20038;-51
2022/04/02 19:29:02;;;;;;;12.35;5.80;;;4.60;98.10;;;;;;5033960;28;20041;-47
2022/04/02 19:31:30;;;;;;;12.07;6.13;;;4.50;98.30;;;;;;5035298;28;20053;-42
2022/04/02 19:33:57;;;;;;;10.25;6.00;;;4.50;98.40;;;;;;5035163;28;20115;-47
2022/04/02 19:36:24;;;;;;;8.57;5.50;;;4.50;98.10;;;;;;5033678;28;20523;-48
2022/04/02 19:38:50;;;;;;;11.18;7.35;;;4.40;98.40;;;;;;5048282;28;20040;-50
2022/04/02 19:41:17;;;;;;;13.05;7.35;;;4.40;99.10;;;;;;5035117;28;20045;-51
2022/04/02 19:43:44;;;;;;;9.15;6.43;;;4.40;99.30;;;;;;5034115;28;20042;-45
2022/04/02 19:46:12;;;;;;;12.43;5.43;;;4.40;99.30;;;;;;5045907;28;20068;-45
2022/04/02 19:48:39;;;;;;;8.98;4.57;;;4.40;99.30;;;;;;5053808;28;20076;-47
2022/04/02 19:51:06;;;;;;;9.90;4.60;;;4.40;99.10;;;;;;5054036;28;20106;-46
2022/04/02 19:53:33;;;;;;;7.45;4.35;;;4.40;99.20;;;;;;5054062;28;20496;-44
2022/04/02 19:56:00;;;;;;;10.60;6.22;;;4.40;98.90;;;;;;5043902;28;20496;-47
2022/04/02 19:58:27;;;;;;;16.30;8.18;;;4.30;98.60;;;;;;5034756;28;20052;-47
2022/04/02 20:00:53;;;;;;;16.13;9.27;;;4.30;98.90;;;;;;5033619;28;20045;-48
2022/04/02 20:03:20;;;;;;;18.33;9.98;;;4.30;99.00;;;;;;5034646;28;20049;-46
2022/04/02 20:05:47;;;;;;;21.40;11.43;;;4.20;99.20;;;;;;5043823;28;20049;-44
2022/04/02 20:08:16;;;;;;;17.65;11.00;;;4.20;99.30;;;;;;5053634;28;20135;-50
2022/04/02 20:10:50;;;;;;;;;;;4.10;99.30;;;;;;5054150;28;20043;-49
2022/04/02 20:13:16;;;;;;;19.88;11.65;;;4.10;99.60;;;;;;5053848;28;19956;-48
2022/04/02 20:15:44;;;;;;;14.77;11.05;;;4.00;99.60;;;;;;5053513;28;20049;-47
2022/04/02 20:18:11;;;;;;;19.95;11.13;;;4.00;99.60;;;;;;5052204;28;20068;-46
2022/04/02 20:20:38;;;;;;;16.58;11.25;;;3.90;99.50;;;;;;5043697;28;20041;-44
2022/04/02 20:23:05;;;;;;;18.95;10.73;;;3.90;99.60;;;;;;5034414;28;20084;-47
2022/04/02 20:25:32;;;;;;;16.08;10.38;;;3.80;99.50;;;;;;5032929;28;20095;-50
2022/04/02 20:28:05;;;;;;;17.70;11.02;;;3.80;99.50;;;;;;5032995;28;20077;-46
2022/04/02 20:30:32;;;;;;;17.67;12.13;;;3.80;99.60;;;;;;5034149;28;20504;-46
2022/04/02 20:33:00;;;;;;;21.17;13.10;;;3.70;99.50;;;;;;5034061;28;20156;-42
2022/04/02 20:35:27;;;;;;;20.52;13.38;;;3.70;99.50;;;;;;5034084;28;20055;-49
2022/04/02 20:37:54;;;;;;;19.67;11.95;;;3.60;99.80;;;;;;5033663;28;20049;-42
2022/04/02 20:40:21;;;;;;;16.02;11.80;;;3.60;99.70;;;;;;5033894;28;20047;-47
2022/04/02 20:42:48;;;;;;;18.63;12.40;;;3.60;99.80;;;;;;5052504;28;20041;-51
2022/04/02 20:45:15;;;;;;;20.92;13.90;;;3.50;99.90;;;;;;5052893;28;20043;-45
2022/04/02 20:47:42;;;;;;;18.17;12.60;;;3.50;99.90;;;;;;5051647;28;20036;-43
2022/04/02 20:50:13;;;;;;;17.52;10.93;;;3.50;99.90;;;;;;5052816;28;20100;-43
2022/04/02 20:52:40;;;;;;;18.85;10.85;;;3.40;99.90;;;;;;5052907;28;20049;-44
2022/04/02 20:55:09;;;;;;;14.40;9.48;;;3.40;99.90;;;;;;5051656;28;20041;-46
2022/04/02 20:57:36;;;;;;;15.68;8.40;;;3.30;99.90;;;;;;5052651;28;20051;-47
2022/04/02 21:00:06;;;;;;;15.02;7.93;;;3.30;99.90;;;;;;5052646;28;20037;-45
2022/04/02 21:02:32;;;;;;;12.90;7.68;;;3.20;99.90;;;;;;5049249;28;20128;-46
2022/04/02 21:05:04;;;;;;;11.50;7.70;;;3.20;99.90;;;;;;5032454;28;20046;-48
2022/04/02 21:07:31;;;;;;;12.88;8.13;;;3.10;99.90;;;;;;5033596;28;20069;-48
2022/04/02 21:09:57;;;;;;;13.48;8.60;;;3.10;99.90;;;;;;5037409;28;20175;-43
2022/04/02 21:12:24;;;;;;;15.07;9.20;;;3.10;99.90;;;;;;5052228;28;20048;-48
2022/04/02 21:14:55;;;;;;;15.13;9.43;;;3.10;99.90;;;;;;5052541;28;20132;-47
2022/04/02 21:17:26;;;;;;;17.08;9.25;;;3.00;99.90;;;;;;5052472;28;20095;-47
2022/04/02 21:19:53;;;;;;;14.32;9.77;;;3.00;99.90;;;;;;5052405;28;20033;-48
2022/04/02 21:22:19;;;;;;;18.95;9.18;;;2.90;99.90;;;;;;5047842;28;20041;-43
2022/04/02 21:24:53;;;;;;;13.25;9.90;;;2.90;99.90;;;;;;5040523;28;20043;-47
2022/04/02 21:27:20;;;;;;;19.02;10.02;;;2.90;99.90;;;;;;5041366;28;20488;-46
2022/04/02 21:29:46;;;;;;;16.35;9.85;;;2.90;99.90;;;;;;5044329;28;20445;-43
2022/04/02 21:32:13;;;;;;;14.80;9.75;;;2.80;99.90;;;;;;5055554;28;20086;-44
2022/04/02 21:34:40;;;;;;;19.50;10.05;;;2.80;99.90;;;;;;5053623;28;20045;-41
2022/04/02 21:37:07;;;;;;;17.83;10.07;;;2.70;99.90;;;;;;5051166;28;20420;-45
2022/04/02 21:39:35;;;;;;;17.77;8.63;;;2.70;99.90;;;;;;5051641;28;20127;-44
2022/04/02 21:42:02;;;;;;;13.32;9.50;;;2.70;99.90;;;;;;5052096;28;20072;-43
2022/04/02 21:44:30;;;;;;;13.20;9.55;;;2.70;99.90;;;;;;5052064;28;20099;-44
2022/04/02 21:46:58;;;;;;;17.20;10.35;;;2.70;99.90;;;;;;5051210;28;20048;-47
2022/04/02 21:49:25;;;;;;;16.88;10.65;;;2.60;99.90;;;;;;5034440;28;20095;-49
2022/04/02 21:51:52;;;;;;;19.90;12.13;;;2.50;99.90;;;;;;5032752;28;20123;-43
2022/04/02 21:54:19;;;;;;;21.55;12.73;;;2.50;99.90;;;;;;5036732;28;20037;-52
2022/04/02 21:56:46;;;;;;;17.02;11.40;;;2.40;99.90;;;;;;5051574;28;20120;-44
2022/04/02 21:59:33;;;;;;;20.17;12.75;;;2.40;99.90;;;;;;5051943;28;20484;-47
2022/04/02 22:01:59;;;;;;;28.50;15.65;;;2.40;99.90;;;;;;5032127;28;20044;-46
2022/04/02 22:04:26;;;;;;;21.35;11.55;;;2.40;99.90;;;;;;5045782;28;20041;-53
2022/04/02 22:06:54;;;;;;;15.95;10.05;;;2.40;99.90;;;;;;5038635;28;20053;-45
2022/04/02 22:09:21;;;;;;;23.63;12.10;;;2.40;99.90;;;;;;5033789;28;20449;-50
2022/04/02 22:11:48;;;;;;;18.95;11.50;;;2.40;99.90;;;;;;5050323;28;20111;-48
2022/04/02 22:14:14;;;;;;;16.80;9.02;;;2.40;99.90;;;;;;5050343;28;20044;-49
2022/04/02 22:16:41;;;;;;;17.95;10.60;;;2.40;99.90;;;;;;5037578;28;20495;-46
2022/04/02 22:19:08;;;;;;;20.08;11.93;;;2.40;99.90;;;;;;5051401;28;20143;-50
2022/04/02 22:21:36;;;;;;;18.50;12.25;;;2.40;99.90;;;;;;5051798;28;20507;-46
2022/04/02 22:24:03;;;;;;;23.38;15.32;;;2.40;99.90;;;;;;5053248;28;20048;-49
2022/04/02 22:26:30;;;;;;;23.45;15.52;;;2.40;99.90;;;;;;5049229;28;20045;-46
2022/04/02 22:28:57;;;;;;;24.23;17.00;;;2.40;99.90;;;;;;5036885;28;20045;-44
2022/04/02 22:31:23;;;;;;;28.35;18.05;;;2.40;99.90;;;;;;5054881;28;20056;-46
2022/04/02 22:33:50;;;;;;;23.55;16.13;;;2.40;99.90;;;;;;5042132;28;20075;-47
